createdAt,value
2023-03-06T00:00:55.829Z,100995.59
2023-03-06T00:03:24.600Z,100987.69
2023-03-06T00:05:51.962Z,100973.69
2023-03-06T00:08:21.542Z,100984.22
2023-03-06T00:10:51.797Z,100954.50
2023-03-06T00:13:23.659Z,100952.44
2023-03-06T00:16:07.928Z,100991.44
2023-03-06T00:18:35.245Z,100959.47
2023-03-06T00:21:31.744Z,101000.13
2023-03-06T00:24:03.601Z,101007.50
2023-03-06T00:26:31.237Z,100989.84
2023-03-06T00:28:59.676Z,100975.91
2023-03-06T00:31:31.716Z,101003.34
2023-03-06T00:34:00.687Z,100995.47
2023-03-06T00:36:30.946Z,100999.28
2023-03-06T00:38:58.327Z,100996.72
2023-03-06T00:41:25.475Z,100993.53
2023-03-06T00:43:54.930Z,101006.31
2023-03-06T00:46:22.203Z,100994.66
2023-03-06T00:48:52.588Z,101000.06
2023-03-06T00:51:21.974Z,101007.97
2023-03-06T00:53:49.282Z,100973.00
2023-03-06T00:56:18.918Z,101012.09
2023-03-06T00:58:48.601Z,101010.22
2023-03-06T01:01:15.858Z,100999.34
2023-03-06T01:03:43.696Z,101001.44
2023-03-06T01:06:10.915Z,100982.47
2023-03-06T01:08:38.255Z,100990.59
2023-03-06T01:11:05.650Z,100994.13
2023-03-06T01:13:32.828Z,100991.59
2023-03-06T01:16:11.957Z,100999.84
2023-03-06T01:18:42.491Z,101005.16
2023-03-06T01:21:09.711Z,101002.03
2023-03-06T01:23:37.097Z,101001.03
2023-03-06T01:26:05.110Z,100991.81
2023-03-06T01:28:34.598Z,100962.06
2023-03-06T01:31:02.839Z,100975.41
2023-03-06T01:33:39.827Z,100986.34
2023-03-06T01:36:11.709Z,100970.66
2023-03-06T01:38:39.915Z,100981.22
2023-03-06T01:41:08.000Z,100970.75
2023-03-06T01:43:37.789Z,100963.75
2023-03-06T01:46:24.091Z,100995.22
2023-03-06T01:48:57.533Z,100966.91
2023-03-06T01:51:26.545Z,100983.09
2023-03-06T01:53:55.719Z,100974.09
2023-03-06T01:56:24.407Z,100982.28
2023-03-06T01:58:52.216Z,100954.91
2023-03-06T02:01:20.393Z,100975.72
2023-03-06T02:03:50.092Z,100964.28
2023-03-06T02:06:20.138Z,100979.88
2023-03-06T02:08:50.154Z,100963.28
2023-03-06T02:11:22.149Z,100954.59
2023-03-06T02:13:52.675Z,100961.94
2023-03-06T02:16:26.842Z,100954.81
2023-03-06T02:18:54.543Z,100965.34
2023-03-06T02:21:27.625Z,100928.25
2023-03-06T02:24:20.070Z,100966.25
2023-03-06T02:26:48.598Z,100963.94
2023-03-06T02:29:23.020Z,100943.84
2023-03-06T02:31:50.754Z,100960.72
2023-03-06T02:34:21.113Z,100959.72
2023-03-06T02:36:52.515Z,100913.19
2023-03-06T02:39:23.049Z,100960.75
2023-03-06T02:41:50.347Z,100951.19
2023-03-06T02:44:19.116Z,100943.31
2023-03-06T02:46:46.327Z,100959.75
2023-03-06T02:49:13.624Z,100942.97
2023-03-06T02:51:41.177Z,100950.44
2023-03-06T02:54:09.886Z,100948.66
2023-03-06T02:56:37.238Z,100926.66
2023-03-06T02:59:04.745Z,100943.25
2023-03-06T03:01:32.450Z,100951.31
2023-03-06T03:03:59.722Z,100939.34
2023-03-06T03:06:27.770Z,100935.44
2023-03-06T03:08:55.180Z,100939.69
2023-03-06T03:11:22.992Z,100946.69
2023-03-06T03:13:50.316Z,100923.88
2023-03-06T03:16:22.840Z,100932.44
2023-03-06T03:18:51.735Z,100940.22
2023-03-06T03:21:22.005Z,100940.44
2023-03-06T03:23:50.110Z,100944.00
2023-03-06T03:26:21.225Z,100919.34
2023-03-06T03:28:55.329Z,100936.25
2023-03-06T03:31:22.921Z,100938.03
2023-03-06T03:33:50.863Z,100931.13
2023-03-06T03:36:19.711Z,100944.94
2023-03-06T03:38:48.112Z,100937.94
2023-03-06T03:41:15.586Z,100929.47
2023-03-06T03:43:43.581Z,100932.56
2023-03-06T03:46:11.346Z,100887.81
2023-03-06T03:48:39.130Z,100942.19
2023-03-06T03:51:13.472Z,100932.19
2023-03-06T03:53:45.674Z,100932.31
2023-03-06T03:56:15.685Z,100939.97
2023-03-06T03:58:52.148Z,100936.75
2023-03-06T04:01:20.387Z,100932.72
2023-03-06T04:03:48.345Z,100944.50
2023-03-06T04:06:17.535Z,100937.31
2023-03-06T04:08:45.652Z,100936.75
2023-03-06T04:11:13.002Z,100960.31
2023-03-06T04:13:40.271Z,100917.59
2023-03-06T04:16:08.351Z,100912.84
2023-03-06T04:18:38.148Z,100897.91
2023-03-06T04:21:06.841Z,100935.69
2023-03-06T04:23:34.164Z,100933.66
2023-03-06T04:26:01.666Z,100935.44
2023-03-06T04:28:29.210Z,100939.13
2023-03-06T04:30:57.349Z,100943.53
2023-03-06T04:33:25.301Z,100936.06
2023-03-06T04:35:52.816Z,100916.38
2023-03-06T04:38:25.477Z,100938.81
2023-03-06T04:40:52.978Z,100937.16
2023-03-06T04:43:20.230Z,100928.97
2023-03-06T04:45:48.154Z,100911.94
2023-03-06T04:48:17.581Z,100907.47
2023-03-06T04:50:45.610Z,100933.66
2023-03-06T04:53:14.875Z,100936.44
2023-03-06T04:55:42.293Z,100931.91
2023-03-06T04:58:12.541Z,100930.25
2023-03-06T05:00:39.977Z,100936.66
2023-03-06T05:03:16.699Z,100922.63
2023-03-06T05:05:51.560Z,100889.09
2023-03-06T05:08:38.773Z,100899.34
2023-03-06T05:11:13.848Z,100939.72
2023-03-06T05:13:44.875Z,100931.81
2023-03-06T05:16:17.264Z,100926.69
2023-03-06T05:18:51.863Z,100936.50
2023-03-06T05:21:23.793Z,100934.44
2023-03-06T05:26:38.236Z,100922.69
2023-03-06T05:31:55.747Z,100951.16
2023-03-06T05:34:25.800Z,100952.91
2023-03-06T05:37:18.681Z,100932.91
2023-03-06T05:39:57.993Z,100949.47
2023-03-06T05:42:32.209Z,100935.34
2023-03-06T05:45:03.004Z,100954.00
2023-03-06T05:47:35.283Z,100926.31
2023-03-06T05:50:08.411Z,100948.88
2023-03-06T05:52:38.179Z,100955.03
2023-03-06T05:55:06.746Z,100963.00
2023-03-06T05:57:34.154Z,100936.09
2023-03-06T06:00:01.407Z,100937.44
2023-03-06T06:02:29.910Z,100942.31
2023-03-06T06:04:57.891Z,100941.72
2023-03-06T06:07:26.556Z,100939.13
2023-03-06T06:09:54.687Z,100902.72
2023-03-06T06:12:23.258Z,100946.16
2023-03-06T06:14:50.410Z,100953.34
2023-03-06T06:17:17.718Z,100937.28
2023-03-06T06:19:47.898Z,100954.16
2023-03-06T06:22:15.232Z,100944.28
2023-03-06T06:24:42.799Z,100963.72
2023-03-06T06:27:10.589Z,100959.09
2023-03-06T06:29:39.234Z,100968.75
2023-03-06T06:32:06.848Z,100965.19
2023-03-06T06:34:35.006Z,100962.94
2023-03-06T06:37:02.262Z,100948.84
2023-03-06T06:39:31.261Z,100974.69
2023-03-06T06:42:26.644Z,100965.59
2023-03-06T06:44:52.970Z,100976.97
2023-03-06T06:47:23.961Z,100972.63
2023-03-06T06:49:53.045Z,100964.13
2023-03-06T06:52:20.692Z,100971.16
2023-03-06T06:54:48.835Z,100960.78
2023-03-06T06:57:19.064Z,100958.78
2023-03-06T06:59:48.113Z,100971.31
2023-03-06T07:02:16.812Z,100971.22
2023-03-06T07:05:02.109Z,100937.97
2023-03-06T07:07:30.837Z,100975.09
2023-03-06T07:09:57.953Z,100965.41
2023-03-06T07:12:25.334Z,100970.94
2023-03-06T07:14:53.326Z,100981.59
2023-03-06T07:17:20.658Z,100981.69
2023-03-06T07:19:48.456Z,100986.63
2023-03-06T07:22:16.017Z,100984.34
2023-03-06T07:24:43.601Z,100985.31
2023-03-06T07:27:10.970Z,100993.31
2023-03-06T07:29:38.476Z,100993.81
2023-03-06T07:32:07.215Z,100998.84
2023-03-06T07:34:34.837Z,100994.00
2023-03-06T07:37:02.146Z,101003.38
2023-03-06T07:39:30.517Z,100987.84
2023-03-06T07:41:58.934Z,100993.66
2023-03-06T07:44:26.675Z,100990.09
2023-03-06T07:46:53.965Z,100992.34
2023-03-06T07:49:21.181Z,100970.34
2023-03-06T07:51:48.685Z,100994.97
2023-03-06T07:54:16.033Z,101006.59
2023-03-06T07:56:43.206Z,100997.50
2023-03-06T07:59:11.668Z,101002.31
2023-03-06T08:01:40.457Z,101001.97
2023-03-06T08:04:07.986Z,101003.41
2023-03-06T08:06:35.387Z,101014.44
2023-03-06T08:09:05.898Z,100998.75
2023-03-06T08:11:33.656Z,101013.56
2023-03-06T08:14:00.903Z,101002.81
2023-03-06T08:16:30.608Z,101010.56
2023-03-06T08:18:58.381Z,101006.81
2023-03-06T08:21:27.727Z,100992.09
2023-03-06T08:23:55.579Z,101034.13
2023-03-06T08:26:26.363Z,101034.22
2023-03-06T08:28:55.676Z,101021.50
2023-03-06T08:31:49.937Z,101039.34
2023-03-06T08:34:20.677Z,100966.53
2023-03-06T08:36:48.040Z,100985.19
2023-03-06T08:39:15.257Z,101032.09
2023-03-06T08:41:44.129Z,101046.47
2023-03-06T08:44:12.384Z,101051.63
2023-03-06T08:46:40.126Z,101066.06
2023-03-06T08:49:09.224Z,101059.16
2023-03-06T08:51:36.987Z,101082.22
2023-03-06T08:54:06.708Z,101068.59
2023-03-06T08:56:34.641Z,101032.16
2023-03-06T08:59:04.256Z,101079.00
2023-03-06T09:01:35.315Z,101032.97
2023-03-06T09:04:08.798Z,101056.66
2023-03-06T09:06:38.771Z,101058.59
2023-03-06T09:09:07.845Z,101060.84
2023-03-06T09:11:35.433Z,101069.97
2023-03-06T09:14:03.424Z,101071.47
2023-03-06T09:16:30.791Z,101073.03
2023-03-06T09:18:59.064Z,101058.69
2023-03-06T09:21:27.520Z,101079.31
2023-03-06T09:23:55.092Z,101072.66
2023-03-06T09:26:28.063Z,101066.31
2023-03-06T09:29:00.818Z,101053.59
2023-03-06T09:31:28.804Z,101059.22
2023-03-06T09:33:59.762Z,101068.25
2023-03-06T09:36:26.971Z,101066.69
2023-03-06T09:38:54.347Z,101067.88
2023-03-06T09:41:34.061Z,101054.34
2023-03-06T09:44:38.938Z,101043.56
2023-03-06T09:47:53.250Z,101043.38
2023-03-06T09:50:42.526Z,101049.31
2023-03-06T09:53:51.364Z,101059.81
2023-03-06T09:56:31.340Z,101081.09
2023-03-06T09:59:37.178Z,101072.75
2023-03-06T10:02:29.851Z,101086.09
2023-03-06T10:05:10.446Z,101079.84
2023-03-06T10:08:35.091Z,101084.41
2023-03-06T10:11:15.642Z,101062.41
2023-03-06T10:16:49.458Z,101078.19
2023-03-06T10:19:21.164Z,101057.72
2023-03-06T10:22:01.155Z,101056.78
2023-03-06T10:25:10.421Z,101040.28
2023-03-06T10:27:51.337Z,101033.78
2023-03-06T10:30:57.562Z,101050.75
2023-03-06T10:33:37.441Z,101017.84
2023-03-06T10:36:06.306Z,101049.94
2023-03-06T10:38:39.112Z,101054.41
2023-03-06T10:41:59.681Z,101032.72
2023-03-06T10:44:29.188Z,101020.94
2023-03-06T10:47:02.901Z,101050.47
2023-03-06T10:49:31.407Z,101051.22
2023-03-06T10:52:25.118Z,101000.19
2023-03-06T10:54:57.459Z,101060.53
2023-03-06T10:57:34.275Z,101057.97
2023-03-06T11:00:26.313Z,101042.50
2023-03-06T11:03:24.240Z,101050.38
2023-03-06T11:06:31.427Z,101004.31
2023-03-06T11:09:25.863Z,100989.16
2023-03-06T11:12:17.634Z,101028.25
2023-03-06T11:14:45.762Z,101044.41
2023-03-06T11:17:35.904Z,101033.22
2023-03-06T11:20:24.873Z,101039.34
2023-03-06T11:23:06.371Z,101018.69
2023-03-06T11:25:58.170Z,101004.63
2023-03-06T11:28:59.029Z,101021.84
2023-03-06T11:31:48.940Z,101030.25
2023-03-06T11:34:53.692Z,101024.88
2023-03-06T11:37:36.112Z,101017.28
2023-03-06T11:40:30.553Z,100995.41
2023-03-06T11:43:12.707Z,101033.06
2023-03-06T11:46:02.956Z,101002.50
2023-03-06T11:48:44.881Z,101029.09
2023-03-06T11:51:26.537Z,101010.16
2023-03-06T11:54:00.879Z,101021.81
2023-03-06T11:56:55.652Z,101024.09
2023-03-06T11:59:55.160Z,101008.28
2023-03-06T12:02:44.634Z,100987.53
2023-03-06T12:05:26.727Z,100960.63
2023-03-06T12:08:08.155Z,100989.78
2023-03-06T12:10:54.841Z,100991.97
2023-03-06T12:13:29.816Z,100997.84
2023-03-06T12:16:34.840Z,100956.47
2023-03-06T12:19:39.135Z,100990.28
2023-03-06T12:22:22.021Z,100984.88
2023-03-06T12:25:17.727Z,100988.03
2023-03-06T12:31:36.733Z,100968.38
2023-03-06T12:34:48.034Z,100968.66
2023-03-06T12:38:01.775Z,100924.09
2023-03-06T12:40:57.356Z,100946.41
2023-03-06T12:43:51.328Z,100957.09
2023-03-06T12:46:32.955Z,100966.50
2023-03-06T12:49:35.205Z,100960.94
2023-03-06T12:52:29.706Z,100943.44
2023-03-06T12:57:49.534Z,100923.28
2023-03-06T13:01:07.181Z,100884.66
2023-03-06T13:04:00.216Z,100941.19
2023-03-06T13:07:04.992Z,100931.91
2023-03-06T13:10:10.360Z,100942.53
2023-03-06T13:16:39.184Z,100903.47
2023-03-06T13:19:25.288Z,100931.50
2023-03-06T13:22:04.016Z,100915.72
2023-03-06T13:24:38.927Z,100899.94
2023-03-06T13:27:15.585Z,100892.13
2023-03-06T13:29:53.133Z,100905.47
2023-03-06T13:32:33.226Z,100906.84
2023-03-06T13:35:01.087Z,100898.19
2023-03-06T13:37:35.630Z,100912.22
2023-03-06T13:40:11.763Z,100913.25
2023-03-06T13:42:43.532Z,100903.06
2023-03-06T13:45:25.249Z,100899.75
2023-03-06T13:48:27.327Z,100897.81
2023-03-06T13:50:54.035Z,100898.03
2023-03-06T13:53:24.624Z,100877.56
2023-03-06T13:56:32.084Z,100897.09
2023-03-06T14:00:08.222Z,100890.97
2023-03-06T14:03:04.483Z,100899.91
2023-03-06T14:05:47.534Z,100896.31
2023-03-06T14:08:35.173Z,100880.22
2023-03-06T14:11:21.818Z,100883.94
2023-03-06T14:13:53.746Z,100885.88
2023-03-06T14:16:49.508Z,100819.19
2023-03-06T14:19:20.659Z,100876.63
2023-03-06T14:21:55.289Z,100883.28
2023-03-06T14:24:36.152Z,100875.16
2023-03-06T14:27:22.395Z,100848.88
2023-03-06T14:30:14.327Z,100848.81
2023-03-06T14:32:57.810Z,100867.16
2023-03-06T14:35:32.910Z,100849.69
2023-03-06T14:38:10.222Z,100863.97
2023-03-06T14:41:28.777Z,100860.84
2023-03-06T14:44:28.306Z,100870.53
2023-03-06T14:46:58.461Z,100860.84
2023-03-06T14:49:34.076Z,100863.31
2023-03-06T14:52:24.650Z,100860.84
2023-03-06T14:54:54.120Z,100855.50
2023-03-06T14:57:24.169Z,100843.81
2023-03-06T15:00:01.409Z,100861.81
2023-03-06T15:02:33.186Z,100854.00
2023-03-06T15:05:30.189Z,100818.91
2023-03-06T15:08:09.631Z,100848.13
2023-03-06T15:10:39.568Z,100840.91
2023-03-06T15:13:29.134Z,100850.63
2023-03-06T15:16:01.880Z,100850.63
2023-03-06T15:18:44.945Z,100822.28
2023-03-06T15:21:19.565Z,100833.91
2023-03-06T15:23:51.181Z,100840.72
2023-03-06T15:26:39.521Z,100818.03
2023-03-06T15:29:24.963Z,100816.09
2023-03-06T15:32:22.594Z,100833.69
2023-03-06T15:35:37.865Z,100792.47
2023-03-06T15:38:46.679Z,100814.38
2023-03-06T15:42:02.896Z,100839.91
2023-03-06T15:45:10.845Z,100827.94
2023-03-06T15:47:39.509Z,100820.59
2023-03-06T15:50:22.533Z,100814.94
2023-03-06T15:53:04.006Z,100800.84
2023-03-06T15:55:34.521Z,100819.19
2023-03-06T15:58:06.120Z,100810.41
2023-03-06T16:04:27.115Z,100813.88
2023-03-06T16:06:54.657Z,100822.59
2023-03-06T16:09:23.667Z,100825.97
2023-03-06T16:11:51.204Z,100818.63
2023-03-06T16:14:24.978Z,100830.13
2023-03-06T16:16:54.391Z,100804.22
2023-03-06T16:19:26.386Z,100809.28
2023-03-06T16:21:55.208Z,100837.22
2023-03-06T16:24:22.433Z,100836.28
2023-03-06T16:26:52.820Z,100835.94
2023-03-06T16:29:32.873Z,100829.84
2023-03-06T16:37:16.867Z,100850.69
2023-03-06T16:40:20.254Z,100848.69
2023-03-06T16:42:48.174Z,100790.28
2023-03-06T16:45:16.652Z,100807.94
2023-03-06T16:47:46.245Z,100832.22
2023-03-06T16:50:32.004Z,100837.56
2023-03-06T16:53:07.483Z,100807.44
2023-03-06T16:55:35.586Z,100836.38
2023-03-06T16:58:02.901Z,100836.00
2023-03-06T17:00:32.249Z,100831.59
2023-03-06T17:03:04.059Z,100818.53
2023-03-06T17:05:36.054Z,100834.34
2023-03-06T17:08:05.029Z,100834.84
2023-03-06T17:10:32.797Z,100825.88
2023-03-06T17:13:00.952Z,100843.44
2023-03-06T17:15:28.216Z,100802.78
2023-03-06T17:18:08.081Z,100842.44
2023-03-06T17:20:36.717Z,100829.53
2023-03-06T17:23:03.913Z,100830.03
2023-03-06T17:25:55.058Z,100844.97
2023-03-06T17:28:25.489Z,100851.97
2023-03-06T17:30:53.568Z,100821.78
2023-03-06T17:33:28.141Z,100850.06
2023-03-06T17:36:03.233Z,100836.53
2023-03-06T17:38:33.235Z,100833.56
2023-03-06T17:41:06.430Z,100835.13
2023-03-06T17:43:34.539Z,100807.44
2023-03-06T17:46:08.011Z,100823.25
2023-03-06T17:48:37.100Z,100839.94
2023-03-06T17:51:05.267Z,100818.09
2023-03-06T17:53:41.890Z,100819.84
2023-03-06T17:56:23.209Z,100816.88
2023-03-06T17:58:51.797Z,100829.16
2023-03-06T18:01:22.481Z,100835.81
2023-03-06T18:03:51.699Z,100837.00
2023-03-06T18:06:22.409Z,100795.31
2023-03-06T18:08:52.361Z,100825.19
2023-03-06T18:11:27.450Z,100817.78
2023-03-06T18:13:56.800Z,100835.72
2023-03-06T18:16:26.904Z,100838.81
2023-03-06T18:18:55.913Z,100838.53
2023-03-06T18:21:24.252Z,100827.53
2023-03-06T18:23:52.725Z,100780.06
2023-03-06T18:26:23.110Z,100839.22
2023-03-06T18:28:55.554Z,100841.41
2023-03-06T18:31:34.083Z,100807.97
2023-03-06T18:34:04.607Z,100852.47
2023-03-06T18:36:33.542Z,100854.66
2023-03-06T18:39:04.085Z,100856.78
2023-03-06T18:41:31.974Z,100801.38
2023-03-06T18:44:01.236Z,100860.28
2023-03-06T18:46:34.234Z,100852.97
2023-03-06T18:49:01.850Z,100863.78
2023-03-06T18:51:29.112Z,100844.09
2023-03-06T18:54:02.267Z,100858.00
2023-03-06T18:56:29.885Z,100797.78
2023-03-06T18:59:00.707Z,100856.56
2023-03-06T19:01:30.870Z,100863.16
2023-03-06T19:04:02.850Z,100863.63
2023-03-06T19:06:30.701Z,100856.31
2023-03-06T19:09:02.462Z,100854.94
2023-03-06T19:11:30.902Z,100825.53
2023-03-06T19:13:58.653Z,100851.34
2023-03-06T19:16:28.633Z,100827.47
2023-03-06T19:18:57.471Z,100849.13
2023-03-06T19:21:26.987Z,100851.53
2023-03-06T19:23:54.844Z,100838.03
2023-03-06T19:26:22.410Z,100820.53
2023-03-06T19:28:50.052Z,100852.19
2023-03-06T19:31:21.606Z,100842.63
2023-03-06T19:33:50.573Z,100852.06
2023-03-06T19:36:18.989Z,100854.56
2023-03-06T19:38:52.662Z,100826.34
2023-03-06T19:41:19.856Z,100841.09
2023-03-06T19:43:52.401Z,100817.09
2023-03-06T19:46:21.630Z,100835.31
2023-03-06T19:48:57.111Z,100838.00
2023-03-06T19:51:29.361Z,100818.81
2023-03-06T19:54:01.541Z,100832.53
2023-03-06T19:56:42.058Z,100834.06
2023-03-06T19:59:24.692Z,100829.47
2023-03-06T20:01:58.984Z,100833.59
2023-03-06T20:07:10.391Z,100834.25
2023-03-06T20:09:37.702Z,100832.38
2023-03-06T20:12:07.813Z,100846.22
2023-03-06T20:14:35.717Z,100831.59
2023-03-06T20:17:03.256Z,100822.63
2023-03-06T20:19:38.282Z,100834.63
2023-03-06T20:22:14.025Z,100843.13
2023-03-06T20:24:44.275Z,100842.31
2023-03-06T20:27:11.701Z,100852.34
2023-03-06T20:29:44.909Z,100850.59
2023-03-06T20:34:57.382Z,100824.31
2023-03-06T20:37:24.810Z,100842.56
2023-03-06T20:39:58.161Z,100843.44
2023-03-06T20:42:29.368Z,100798.63
2023-03-06T20:45:09.157Z,100847.03
2023-03-06T20:47:36.607Z,100852.53
2023-03-06T20:50:07.847Z,100837.63
2023-03-06T20:52:35.225Z,100845.44
2023-03-06T20:55:11.894Z,100838.38
2023-03-06T20:57:43.093Z,100849.44
2023-03-06T21:00:11.608Z,100842.91
2023-03-06T21:02:38.940Z,100841.28
2023-03-06T21:05:07.014Z,100835.19
2023-03-06T21:07:34.531Z,100841.47
2023-03-06T21:10:01.697Z,100834.72
2023-03-06T21:12:35.952Z,100843.66
2023-03-06T21:15:07.290Z,100838.19
2023-03-06T21:17:37.135Z,100837.00
2023-03-06T21:20:05.984Z,100818.25
2023-03-06T21:22:33.478Z,100833.56
2023-03-06T21:25:03.805Z,100838.97
2023-03-06T21:27:31.115Z,100827.00
2023-03-06T21:29:59.521Z,100840.66
2023-03-06T21:32:27.033Z,100833.31
2023-03-06T21:34:59.788Z,100834.84
2023-03-06T21:37:31.198Z,100834.66
2023-03-06T21:40:02.065Z,100787.41
2023-03-06T21:42:29.762Z,100806.72
2023-03-06T21:45:01.933Z,100827.91
2023-03-06T21:47:39.210Z,100819.22
2023-03-06T21:50:10.176Z,100825.69
2023-03-06T21:52:46.673Z,100821.06
2023-03-06T21:55:14.311Z,100817.50
2023-03-06T21:57:50.577Z,100825.31
2023-03-06T22:00:21.009Z,100823.53
2023-03-06T22:02:50.315Z,100818.66
2023-03-06T22:05:17.893Z,100817.69
2023-03-06T22:07:54.096Z,100807.75
2023-03-06T22:10:24.204Z,100804.47
2023-03-06T22:12:51.789Z,100810.59
2023-03-06T22:15:20.665Z,100794.44
2023-03-06T22:17:48.902Z,100786.66
2023-03-06T22:20:16.208Z,100796.31
2023-03-06T22:22:44.324Z,100805.59
2023-03-06T22:25:21.989Z,100801.47
2023-03-06T22:27:49.493Z,100768.63
2023-03-06T22:30:18.111Z,100797.81
2023-03-06T22:32:45.498Z,100800.47
2023-03-06T22:35:18.483Z,100793.56
2023-03-06T22:37:49.173Z,100778.75
2023-03-06T22:40:20.132Z,100777.97
2023-03-06T22:42:47.527Z,100777.16
2023-03-06T22:45:15.184Z,100788.31
2023-03-06T22:47:42.554Z,100758.75
2023-03-06T22:50:10.770Z,100774.88
2023-03-06T22:52:38.417Z,100772.81
2023-03-06T22:55:09.741Z,100756.88
2023-03-06T22:57:37.259Z,100764.06
2023-03-06T23:00:05.356Z,100757.16
2023-03-06T23:02:34.566Z,100750.25
2023-03-06T23:05:06.870Z,100753.00
2023-03-06T23:07:40.504Z,100742.94
2023-03-06T23:10:07.720Z,100745.63
2023-03-06T23:12:53.686Z,100735.97
2023-03-06T23:15:39.631Z,100723.66
2023-03-06T23:18:43.090Z,100728.28
2023-03-06T23:21:33.129Z,100744.56
2023-03-06T23:24:19.004Z,100734.91
2023-03-06T23:26:56.059Z,100726.31
2023-03-06T23:29:24.796Z,100719.06
2023-03-06T23:31:53.108Z,100715.41
2023-03-06T23:34:20.351Z,100713.63
2023-03-06T23:36:47.572Z,100709.72
2023-03-06T23:39:15.030Z,100699.16
2023-03-06T23:41:42.880Z,100697.25
2023-03-06T23:44:10.059Z,100694.38
2023-03-06T23:46:37.342Z,100702.44
2023-03-06T23:49:08.242Z,100707.22
2023-03-06T23:51:39.794Z,100696.16
2023-03-06T23:54:07.357Z,100700.31
2023-03-06T23:56:36.830Z,100708.88
2023-03-06T23:59:04.147Z,100710.22
